sensor_id;sensor_type;location;lat;lon;timestamp;pressure;altitude;pressure_sealevel;temperature
71081;BMP180;58740;50.672;18.690;2022-09-02T00:01:35;99487.40;;;14.98
71081;BMP180;58740;50.672;18.690;2022-09-02T00:04:09;99483.00;;;14.92
71081;BMP180;58740;50.672;18.690;2022-09-02T00:06:43;99480.60;;;14.90
71081;BMP180;58740;50.672;18.690;2022-09-02T00:09:14;99479.00;;;14.90
71081;BMP180;58740;50.672;18.690;2022-09-02T00:11:46;99481.80;;;14.90
71081;BMP180;58740;50.672;18.690;2022-09-02T00:14:22;99476.00;;;14.80
71081;BMP180;58740;50.672;18.690;2022-09-02T00:16:50;99476.80;;;14.70
71081;BMP180;58740;50.672;18.690;2022-09-02T00:19:23;99474.20;;;14.60
71081;BMP180;58740;50.672;18.690;2022-09-02T00:21:54;99473.80;;;14.56
71081;BMP180;58740;50.672;18.690;2022-09-02T00:24:23;99473.40;;;14.50
71081;BMP180;58740;50.672;18.690;2022-09-02T00:26:52;99471.00;;;14.50
71081;BMP180;58740;50.672;18.690;2022-09-02T00:29:26;99477.40;;;14.40
71081;BMP180;58740;50.672;18.690;2022-09-02T00:31:54;99476.80;;;14.40
71081;BMP180;58740;50.672;18.690;2022-09-02T00:34:23;99475.60;;;14.30
71081;BMP180;58740;50.672;18.690;2022-09-02T00:36:51;99477.40;;;14.30
71081;BMP180;58740;50.672;18.690;2022-09-02T00:39:19;99476.00;;;14.20
71081;BMP180;58740;50.672;18.690;2022-09-02T00:41:47;99475.00;;;14.20
71081;BMP180;58740;50.672;18.690;2022-09-02T00:44:18;99475.60;;;14.20
71081;BMP180;58740;50.672;18.690;2022-09-02T00:46:46;99473.40;;;14.20
71081;BMP180;58740;50.672;18.690;2022-09-02T00:49:29;99475.40;;;14.20
71081;BMP180;58740;50.672;18.690;2022-09-02T00:52:09;99465.40;;;14.16
71081;BMP180;58740;50.672;18.690;2022-09-02T00:54:56;99465.00;;;14.10
71081;BMP180;58740;50.672;18.690;2022-09-02T00:57:31;99468.40;;;14.10
71081;BMP180;58740;50.672;18.690;2022-09-02T01:00:34;99470.80;;;14.10
71081;BMP180;58740;50.672;18.690;2022-09-02T01:03:08;99472.00;;;14.00
71081;BMP180;58740;50.672;18.690;2022-09-02T01:05:41;99470.00;;;13.90
71081;BMP180;58740;50.672;18.690;2022-09-02T01:08:15;99467.20;;;13.90
71081;BMP180;58740;50.672;18.690;2022-09-02T01:10:43;99468.80;;;13.82
71081;BMP180;58740;50.672;18.690;2022-09-02T01:13:16;99473.80;;;13.80
71081;BMP180;58740;50.672;18.690;2022-09-02T01:15:54;99470.20;;;13.78
71081;BMP180;58740;50.672;18.690;2022-09-02T01:18:27;99469.40;;;13.72
71081;BMP180;58740;50.672;18.690;2022-09-02T01:20:59;99468.40;;;13.70
71081;BMP180;58740;50.672;18.690;2022-09-02T01:23:30;99469.20;;;13.70
71081;BMP180;58740;50.672;18.690;2022-09-02T01:26:03;99467.20;;;13.60
71081;BMP180;58740;50.672;18.690;2022-09-02T01:28:33;99466.80;;;13.60
71081;BMP180;58740;50.672;18.690;2022-09-02T01:31:01;99468.80;;;13.60
71081;BMP180;58740;50.672;18.690;2022-09-02T01:33:29;99463.80;;;13.60
71081;BMP180;58740;50.672;18.690;2022-09-02T01:35:58;99463.80;;;13.50
71081;BMP180;58740;50.672;18.690;2022-09-02T01:38:28;99466.40;;;13.42
71081;BMP180;58740;50.672;18.690;2022-09-02T01:40:55;99468.00;;;13.40
71081;BMP180;58740;50.672;18.690;2022-09-02T01:43:26;99465.60;;;13.40
71081;BMP180;58740;50.672;18.690;2022-09-02T01:45:57;99470.60;;;13.40
71081;BMP180;58740;50.672;18.690;2022-09-02T01:48:26;99470.20;;;13.42
71081;BMP180;58740;50.672;18.690;2022-09-02T01:50:58;99468.60;;;13.50
71081;BMP180;58740;50.672;18.690;2022-09-02T01:53:27;99469.40;;;13.50
71081;BMP180;58740;50.672;18.690;2022-09-02T01:55:55;99463.40;;;13.50
71081;BMP180;58740;50.672;18.690;2022-09-02T01:58:23;99464.00;;;13.50
71081;BMP180;58740;50.672;18.690;2022-09-02T02:00:51;99465.40;;;13.50
71081;BMP180;58740;50.672;18.690;2022-09-02T02:03:19;99466.20;;;13.50
71081;BMP180;58740;50.672;18.690;2022-09-02T02:05:47;99459.20;;;13.40
71081;BMP180;58740;50.672;18.690;2022-09-02T02:08:15;99465.20;;;13.40
71081;BMP180;58740;50.672;18.690;2022-09-02T02:10:43;99465.00;;;13.40
71081;BMP180;58740;50.672;18.690;2022-09-02T02:13:10;99469.00;;;13.38
71081;BMP180;58740;50.672;18.690;2022-09-02T02:15:40;99465.20;;;13.38
71081;BMP180;58740;50.672;18.690;2022-09-02T02:18:10;99461.60;;;13.40
71081;BMP180;58740;50.672;18.690;2022-09-02T02:20:37;99460.80;;;13.40
71081;BMP180;58740;50.672;18.690;2022-09-02T02:23:06;99458.20;;;13.38
71081;BMP180;58740;50.672;18.690;2022-09-02T02:25:34;99464.00;;;13.30
71081;BMP180;58740;50.672;18.690;2022-09-02T02:28:03;99460.80;;;13.20
71081;BMP180;58740;50.672;18.690;2022-09-02T02:30:32;99457.00;;;13.20
71081;BMP180;58740;50.672;18.690;2022-09-02T02:33:00;99455.40;;;13.10
71081;BMP180;58740;50.672;18.690;2022-09-02T02:35:28;99454.80;;;13.00
71081;BMP180;58740;50.672;18.690;2022-09-02T02:37:56;99450.60;;;12.92
71081;BMP180;58740;50.672;18.690;2022-09-02T02:40:29;99455.00;;;12.90
71081;BMP180;58740;50.672;18.690;2022-09-02T02:42:59;99457.00;;;12.80
71081;BMP180;58740;50.672;18.690;2022-09-02T02:45:27;99451.40;;;12.70
71081;BMP180;58740;50.672;18.690;2022-09-02T02:47:55;99454.00;;;12.70
71081;BMP180;58740;50.672;18.690;2022-09-02T02:50:24;99456.20;;;12.70
71081;BMP180;58740;50.672;18.690;2022-09-02T02:52:53;99456.80;;;12.70
71081;BMP180;58740;50.672;18.690;2022-09-02T02:55:24;99456.00;;;12.70
71081;BMP180;58740;50.672;18.690;2022-09-02T02:57:51;99455.60;;;12.70
71081;BMP180;58740;50.672;18.690;2022-09-02T03:00:24;99458.80;;;12.70
71081;BMP180;58740;50.672;18.690;2022-09-02T03:02:58;99461.40;;;12.70
71081;BMP180;58740;50.672;18.690;2022-09-02T03:05:27;99452.80;;;12.70
71081;BMP180;58740;50.672;18.690;2022-09-02T03:07:55;99452.60;;;12.60
71081;BMP180;58740;50.672;18.690;2022-09-02T03:10:24;99451.60;;;12.60
71081;BMP180;58740;50.672;18.690;2022-09-02T03:12:53;99454.60;;;12.60
71081;BMP180;58740;50.672;18.690;2022-09-02T03:15:21;99451.80;;;12.56
71081;BMP180;58740;50.672;18.690;2022-09-02T03:17:49;99449.40;;;12.50
71081;BMP180;58740;50.672;18.690;2022-09-02T03:20:18;99444.80;;;12.50
71081;BMP180;58740;50.672;18.690;2022-09-02T03:22:49;99446.00;;;12.50
71081;BMP180;58740;50.672;18.690;2022-09-02T03:25:19;99447.80;;;12.44
71081;BMP180;58740;50.672;18.690;2022-09-02T03:27:49;99450.20;;;12.40
71081;BMP180;58740;50.672;18.690;2022-09-02T03:30:22;99445.80;;;12.40
71081;BMP180;58740;50.672;18.690;2022-09-02T03:32:54;99442.80;;;12.40
71081;BMP180;58740;50.672;18.690;2022-09-02T03:35:26;99434.20;;;12.36
71081;BMP180;58740;50.672;18.690;2022-09-02T03:37:55;99433.40;;;12.30
71081;BMP180;58740;50.672;18.690;2022-09-02T03:40:26;99438.40;;;12.30
71081;BMP180;58740;50.672;18.690;2022-09-02T03:42:55;99439.60;;;12.30
71081;BMP180;58740;50.672;18.690;2022-09-02T03:45:27;99441.00;;;12.40
71081;BMP180;58740;50.672;18.690;2022-09-02T03:47:56;99439.40;;;12.50
71081;BMP180;58740;50.672;18.690;2022-09-02T03:50:35;99438.00;;;12.50
71081;BMP180;58740;50.672;18.690;2022-09-02T03:53:06;99442.80;;;12.50
71081;BMP180;58740;50.672;18.690;2022-09-02T03:55:38;99444.60;;;12.50
71081;BMP180;58740;50.672;18.690;2022-09-02T03:58:06;99450.60;;;12.60
71081;BMP180;58740;50.672;18.690;2022-09-02T04:00:35;99447.00;;;12.60
71081;BMP180;58740;50.672;18.690;2022-09-02T04:03:05;99446.40;;;12.60
71081;BMP180;58740;50.672;18.690;2022-09-02T04:05:33;99449.00;;;12.60
71081;BMP180;58740;50.672;18.690;2022-09-02T04:08:01;99449.20;;;12.60
71081;BMP180;58740;50.672;18.690;2022-09-02T04:10:29;99447.60;;;12.60
71081;BMP180;58740;50.672;18.690;2022-09-02T04:12:56;99450.80;;;12.60
71081;BMP180;58740;50.672;18.690;2022-09-02T04:15:24;99452.80;;;12.60
71081;BMP180;58740;50.672;18.690;2022-09-02T04:17:52;99456.80;;;12.64
71081;BMP180;58740;50.672;18.690;2022-09-02T04:20:19;99452.80;;;12.64
71081;BMP180;58740;50.672;18.690;2022-09-02T04:22:48;99455.80;;;12.60
71081;BMP180;58740;50.672;18.690;2022-09-02T04:25:16;99455.20;;;12.60
71081;BMP180;58740;50.672;18.690;2022-09-02T04:27:44;99457.20;;;12.54
71081;BMP180;58740;50.672;18.690;2022-09-02T04:30:12;99459.20;;;12.50
71081;BMP180;58740;50.672;18.690;2022-09-02T04:32:42;99452.80;;;12.50
71081;BMP180;58740;50.672;18.690;2022-09-02T04:35:10;99454.40;;;12.50
71081;BMP180;58740;50.672;18.690;2022-09-02T04:37:38;99459.80;;;12.50
71081;BMP180;58740;50.672;18.690;2022-09-02T04:40:07;99451.00;;;12.46
71081;BMP180;58740;50.672;18.690;2022-09-02T04:42:35;99455.20;;;12.50
71081;BMP180;58740;50.672;18.690;2022-09-02T04:45:04;99454.20;;;12.50
71081;BMP180;58740;50.672;18.690;2022-09-02T04:47:31;99460.40;;;12.50
71081;BMP180;58740;50.672;18.690;2022-09-02T04:49:59;99458.80;;;12.50
71081;BMP180;58740;50.672;18.690;2022-09-02T04:52:27;99456.00;;;12.54
71081;BMP180;58740;50.672;18.690;2022-09-02T04:54:56;99456.20;;;12.58
71081;BMP180;58740;50.672;18.690;2022-09-02T04:57:23;99456.80;;;12.50
71081;BMP180;58740;50.672;18.690;2022-09-02T04:59:52;99456.00;;;12.50
71081;BMP180;58740;50.672;18.690;2022-09-02T05:02:20;99460.60;;;12.50
71081;BMP180;58740;50.672;18.690;2022-09-02T05:04:48;99461.80;;;12.50
71081;BMP180;58740;50.672;18.690;2022-09-02T05:07:16;99460.40;;;12.50
71081;BMP180;58740;50.672;18.690;2022-09-02T05:09:43;99460.00;;;12.60
71081;BMP180;58740;50.672;18.690;2022-09-02T05:12:12;99466.00;;;12.70
71081;BMP180;58740;50.672;18.690;2022-09-02T05:14:41;99463.80;;;12.70
71081;BMP180;58740;50.672;18.690;2022-09-02T05:17:10;99455.20;;;12.80
71081;BMP180;58740;50.672;18.690;2022-09-02T05:19:37;99457.00;;;12.90
71081;BMP180;58740;50.672;18.690;2022-09-02T05:22:05;99459.80;;;12.98
71081;BMP180;58740;50.672;18.690;2022-09-02T05:24:33;99463.80;;;13.00
71081;BMP180;58740;50.672;18.690;2022-09-02T05:27:01;99459.40;;;13.06
71081;BMP180;58740;50.672;18.690;2022-09-02T05:29:29;99456.60;;;13.10
71081;BMP180;58740;50.672;18.690;2022-09-02T05:31:56;99457.40;;;13.20
71081;BMP180;58740;50.672;18.690;2022-09-02T05:34:24;99460.80;;;13.30
71081;BMP180;58740;50.672;18.690;2022-09-02T05:36:52;99460.80;;;13.40
71081;BMP180;58740;50.672;18.690;2022-09-02T05:39:20;99453.00;;;13.42
71081;BMP180;58740;50.672;18.690;2022-09-02T05:41:48;99454.60;;;13.50
71081;BMP180;58740;50.672;18.690;2022-09-02T05:44:15;99454.60;;;13.54
71081;BMP180;58740;50.672;18.690;2022-09-02T05:46:43;99452.80;;;13.60
71081;BMP180;58740;50.672;18.690;2022-09-02T05:49:15;99457.00;;;13.70
71081;BMP180;58740;50.672;18.690;2022-09-02T05:51:52;99456.20;;;13.90
71081;BMP180;58740;50.672;18.690;2022-09-02T05:54:33;99449.40;;;14.00
71081;BMP180;58740;50.672;18.690;2022-09-02T05:57:09;99455.20;;;14.00
71081;BMP180;58740;50.672;18.690;2022-09-02T05:59:40;99452.40;;;14.10
71081;BMP180;58740;50.672;18.690;2022-09-02T06:02:11;99457.20;;;14.20
71081;BMP180;58740;50.672;18.690;2022-09-02T06:04:44;99454.80;;;14.38
71081;BMP180;58740;50.672;18.690;2022-09-02T06:07:13;99453.80;;;14.48
71081;BMP180;58740;50.672;18.690;2022-09-02T06:09:41;99454.00;;;14.60
71081;BMP180;58740;50.672;18.690;2022-09-02T06:12:13;99453.80;;;14.70
71081;BMP180;58740;50.672;18.690;2022-09-02T06:14:41;99455.00;;;14.80
71081;BMP180;58740;50.672;18.690;2022-09-02T06:17:09;99451.80;;;14.90
71081;BMP180;58740;50.672;18.690;2022-09-02T06:19:37;99451.40;;;15.08
71081;BMP180;58740;50.672;18.690;2022-09-02T06:22:06;99456.60;;;15.18
71081;BMP180;58740;50.672;18.690;2022-09-02T06:24:33;99456.40;;;15.30
71081;BMP180;58740;50.672;18.690;2022-09-02T06:27:01;99459.20;;;15.30
71081;BMP180;58740;50.672;18.690;2022-09-02T06:29:29;99455.00;;;15.30
71081;BMP180;58740;50.672;18.690;2022-09-02T06:31:57;99455.40;;;15.40
71081;BMP180;58740;50.672;18.690;2022-09-02T06:34:25;99455.40;;;15.50
71081;BMP180;58740;50.672;18.690;2022-09-02T06:36:54;99456.40;;;15.50
71081;BMP180;58740;50.672;18.690;2022-09-02T06:39:24;99455.40;;;15.60
71081;BMP180;58740;50.672;18.690;2022-09-02T06:41:52;99458.00;;;15.62
71081;BMP180;58740;50.672;18.690;2022-09-02T06:44:20;99458.60;;;15.70
71081;BMP180;58740;50.672;18.690;2022-09-02T06:46:55;99461.80;;;15.80
71081;BMP180;58740;50.672;18.690;2022-09-02T06:49:25;99459.40;;;15.82
71081;BMP180;58740;50.672;18.690;2022-09-02T06:51:54;99461.20;;;15.90
71081;BMP180;58740;50.672;18.690;2022-09-02T06:54:23;99460.60;;;15.90
71081;BMP180;58740;50.672;18.690;2022-09-02T06:56:52;99464.00;;;16.00
71081;BMP180;58740;50.672;18.690;2022-09-02T06:59:21;99464.40;;;16.10
71081;BMP180;58740;50.672;18.690;2022-09-02T07:01:49;99463.60;;;16.14
71081;BMP180;58740;50.672;18.690;2022-09-02T07:04:18;99462.60;;;16.28
71081;BMP180;58740;50.672;18.690;2022-09-02T07:07:07;99465.60;;;16.38
71081;BMP180;58740;50.672;18.690;2022-09-02T07:09:35;99463.80;;;16.40
71081;BMP180;58740;50.672;18.690;2022-09-02T07:12:03;99467.40;;;16.50
71081;BMP180;58740;50.672;18.690;2022-09-02T07:14:39;99470.00;;;16.50
71081;BMP180;58740;50.672;18.690;2022-09-02T07:17:10;99463.40;;;16.60
71081;BMP180;58740;50.672;18.690;2022-09-02T07:19:39;99464.00;;;16.68
71081;BMP180;58740;50.672;18.690;2022-09-02T07:22:07;99463.20;;;16.70
71081;BMP180;58740;50.672;18.690;2022-09-02T07:24:36;99456.40;;;16.80
71081;BMP180;58740;50.672;18.690;2022-09-02T07:27:05;99458.80;;;16.80
71081;BMP180;58740;50.672;18.690;2022-09-02T07:29:34;99463.20;;;16.90
71081;BMP180;58740;50.672;18.690;2022-09-02T07:32:03;99467.40;;;17.00
71081;BMP180;58740;50.672;18.690;2022-09-02T07:34:30;99462.80;;;17.10
71081;BMP180;58740;50.672;18.690;2022-09-02T07:36:58;99465.40;;;17.16
71081;BMP180;58740;50.672;18.690;2022-09-02T07:39:32;99469.00;;;17.22
71081;BMP180;58740;50.672;18.690;2022-09-02T07:42:00;99467.60;;;17.30
71081;BMP180;58740;50.672;18.690;2022-09-02T07:44:28;99466.80;;;17.40
71081;BMP180;58740;50.672;18.690;2022-09-02T07:46:56;99460.40;;;17.42
71081;BMP180;58740;50.672;18.690;2022-09-02T07:49:24;99462.60;;;17.50
71081;BMP180;58740;50.672;18.690;2022-09-02T07:51:51;99458.20;;;17.60
71081;BMP180;58740;50.672;18.690;2022-09-02T07:54:23;99459.40;;;17.70
71081;BMP180;58740;50.672;18.690;2022-09-02T07:56:53;99461.20;;;17.70
71081;BMP180;58740;50.672;18.690;2022-09-02T07:59:21;99457.80;;;17.80
71081;BMP180;58740;50.672;18.690;2022-09-02T08:01:50;99454.20;;;17.90
71081;BMP180;58740;50.672;18.690;2022-09-02T08:04:20;99456.20;;;18.00
71081;BMP180;58740;50.672;18.690;2022-09-02T08:06:53;99453.60;;;18.10
71081;BMP180;58740;50.672;18.690;2022-09-02T08:09:21;99448.80;;;18.10
71081;BMP180;58740;50.672;18.690;2022-09-02T08:11:50;99448.20;;;18.10
71081;BMP180;58740;50.672;18.690;2022-09-02T08:14:24;99448.80;;;18.20
71081;BMP180;58740;50.672;18.690;2022-09-02T08:16:54;99448.40;;;18.20
71081;BMP180;58740;50.672;18.690;2022-09-02T08:19:24;99447.20;;;18.30
71081;BMP180;58740;50.672;18.690;2022-09-02T08:21:51;99446.60;;;18.40
71081;BMP180;58740;50.672;18.690;2022-09-02T08:24:19;99449.80;;;18.50
71081;BMP180;58740;50.672;18.690;2022-09-02T08:26:47;99446.60;;;18.50
71081;BMP180;58740;50.672;18.690;2022-09-02T08:29:15;99448.60;;;18.52
71081;BMP180;58740;50.672;18.690;2022-09-02T08:31:43;99446.60;;;18.60
71081;BMP180;58740;50.672;18.690;2022-09-02T08:34:11;99447.40;;;18.60
71081;BMP180;58740;50.672;18.690;2022-09-02T08:36:38;99443.60;;;18.66
71081;BMP180;58740;50.672;18.690;2022-09-02T08:39:23;99446.40;;;18.70
71081;BMP180;58740;50.672;18.690;2022-09-02T08:44:50;99439.40;;;18.80
71081;BMP180;58740;50.672;18.690;2022-09-02T08:47:27;99437.60;;;18.80
71081;BMP180;58740;50.672;18.690;2022-09-02T08:50:00;99435.40;;;18.90
71081;BMP180;58740;50.672;18.690;2022-09-02T08:52:38;99434.20;;;18.90
71081;BMP180;58740;50.672;18.690;2022-09-02T08:55:18;99434.20;;;19.00
71081;BMP180;58740;50.672;18.690;2022-09-02T08:57:47;99432.20;;;19.10
71081;BMP180;58740;50.672;18.690;2022-09-02T09:00:16;99427.60;;;19.20
71081;BMP180;58740;50.672;18.690;2022-09-02T09:03:05;99440.80;;;19.18
71081;BMP180;58740;50.672;18.690;2022-09-02T09:06:08;99432.80;;;19.10
71081;BMP180;58740;50.672;18.690;2022-09-02T09:08:55;99434.80;;;18.90
71081;BMP180;58740;50.672;18.690;2022-09-02T09:17:40;99418.80;;;18.82
71081;BMP180;58740;50.672;18.690;2022-09-02T09:20:21;99416.80;;;18.80
71081;BMP180;58740;50.672;18.690;2022-09-02T09:22:56;99410.40;;;18.70
71081;BMP180;58740;50.672;18.690;2022-09-02T09:25:27;99407.80;;;18.70
71081;BMP180;58740;50.672;18.690;2022-09-02T09:27:59;99405.40;;;18.70
71081;BMP180;58740;50.672;18.690;2022-09-02T09:30:28;99405.20;;;18.70
71081;BMP180;58740;50.672;18.690;2022-09-02T09:32:58;99407.60;;;18.70
71081;BMP180;58740;50.672;18.690;2022-09-02T09:35:46;99404.20;;;18.70
71081;BMP180;58740;50.672;18.690;2022-09-02T09:38:27;99410.60;;;18.80
71081;BMP180;58740;50.672;18.690;2022-09-02T09:41:16;99410.20;;;18.90
71081;BMP180;58740;50.672;18.690;2022-09-02T09:43:46;99411.20;;;19.00
71081;BMP180;58740;50.672;18.690;2022-09-02T09:46:28;99415.60;;;19.00
71081;BMP180;58740;50.672;18.690;2022-09-02T09:48:57;99415.60;;;19.00
71081;BMP180;58740;50.672;18.690;2022-09-02T09:51:25;99415.40;;;19.00
71081;BMP180;58740;50.672;18.690;2022-09-02T09:54:14;99415.60;;;18.90
71081;BMP180;58740;50.672;18.690;2022-09-02T09:56:43;99407.40;;;18.80
71081;BMP180;58740;50.672;18.690;2022-09-02T09:59:41;99407.00;;;18.74
71081;BMP180;58740;50.672;18.690;2022-09-02T10:02:21;99413.40;;;18.66
71081;BMP180;58740;50.672;18.690;2022-09-02T10:04:52;99412.80;;;18.60
71081;BMP180;58740;50.672;18.690;2022-09-02T10:07:41;99413.20;;;18.50
71081;BMP180;58740;50.672;18.690;2022-09-02T10:10:20;99414.00;;;18.48
71081;BMP180;58740;50.672;18.690;2022-09-02T10:12:53;99415.60;;;18.40
71081;BMP180;58740;50.672;18.690;2022-09-02T10:15:32;99411.80;;;18.40
71081;BMP180;58740;50.672;18.690;2022-09-02T10:18:29;99403.40;;;18.30
71081;BMP180;58740;50.672;18.690;2022-09-02T10:26:47;99403.60;;;18.40
71081;BMP180;58740;50.672;18.690;2022-09-02T10:29:46;99396.20;;;18.32
71081;BMP180;58740;50.672;18.690;2022-09-02T10:35:31;99395.80;;;18.30
71081;BMP180;58740;50.672;18.690;2022-09-02T10:47:15;99391.80;;;18.40
71081;BMP180;58740;50.672;18.690;2022-09-02T10:50:35;99388.00;;;18.40
71081;BMP180;58740;50.672;18.690;2022-09-02T10:53:42;99386.80;;;18.50
71081;BMP180;58740;50.672;18.690;2022-09-02T10:56:30;99385.60;;;18.60
71081;BMP180;58740;50.672;18.690;2022-09-02T10:59:09;99378.40;;;18.56
71081;BMP180;58740;50.672;18.690;2022-09-02T11:01:55;99386.20;;;18.50
71081;BMP180;58740;50.672;18.690;2022-09-02T11:04:37;99383.00;;;18.50
71081;BMP180;58740;50.672;18.690;2022-09-02T11:07:13;99381.40;;;18.50
71081;BMP180;58740;50.672;18.690;2022-09-02T11:09:53;99381.80;;;18.50
71081;BMP180;58740;50.672;18.690;2022-09-02T11:12:44;99383.00;;;18.50
71081;BMP180;58740;50.672;18.690;2022-09-02T11:15:22;99383.80;;;18.50
71081;BMP180;58740;50.672;18.690;2022-09-02T11:18:07;99383.20;;;18.50
71081;BMP180;58740;50.672;18.690;2022-09-02T11:20:53;99373.40;;;18.50
71081;BMP180;58740;50.672;18.690;2022-09-02T11:26:00;99372.20;;;18.50
71081;BMP180;58740;50.672;18.690;2022-09-02T11:29:04;99369.20;;;18.60
71081;BMP180;58740;50.672;18.690;2022-09-02T11:32:04;99357.60;;;18.60
71081;BMP180;58740;50.672;18.690;2022-09-02T11:34:43;99358.00;;;18.70
71081;BMP180;58740;50.672;18.690;2022-09-02T11:37:48;99360.40;;;18.80
71081;BMP180;58740;50.672;18.690;2022-09-02T11:41:03;99364.80;;;18.80
71081;BMP180;58740;50.672;18.690;2022-09-02T11:44:38;99370.40;;;18.70
71081;BMP180;58740;50.672;18.690;2022-09-02T11:53:42;99361.40;;;18.66
71081;BMP180;58740;50.672;18.690;2022-09-02T11:56:19;99363.40;;;18.68
71081;BMP180;58740;50.672;18.690;2022-09-02T11:58:51;99373.20;;;18.70
71081;BMP180;58740;50.672;18.690;2022-09-02T12:01:39;99366.40;;;18.70
71081;BMP180;58740;50.672;18.690;2022-09-02T12:09:54;99372.00;;;18.90
71081;BMP180;58740;50.672;18.690;2022-09-02T12:20:08;99353.00;;;18.90
71081;BMP180;58740;50.672;18.690;2022-09-02T12:22:39;99353.40;;;18.90
71081;BMP180;58740;50.672;18.690;2022-09-02T12:33:33;99347.40;;;18.80
71081;BMP180;58740;50.672;18.690;2022-09-02T12:36:05;99345.20;;;18.80
71081;BMP180;58740;50.672;18.690;2022-09-02T12:38:35;99338.20;;;18.70
71081;BMP180;58740;50.672;18.690;2022-09-02T12:46:51;99337.80;;;18.70
71081;BMP180;58740;50.672;18.690;2022-09-02T12:49:51;99340.00;;;18.70
71081;BMP180;58740;50.672;18.690;2022-09-02T12:57:50;99332.60;;;18.70
71081;BMP180;58740;50.672;18.690;2022-09-02T13:16:21;99303.40;;;18.80
71081;BMP180;58740;50.672;18.690;2022-09-02T13:19:10;99305.60;;;18.72
71081;BMP180;58740;50.672;18.690;2022-09-02T13:22:04;99308.40;;;18.70
71081;BMP180;58740;50.672;18.690;2022-09-02T13:31:14;99301.60;;;18.90
71081;BMP180;58740;50.672;18.690;2022-09-02T13:33:44;99301.80;;;19.00
71081;BMP180;58740;50.672;18.690;2022-09-02T13:36:27;99303.40;;;19.10
71081;BMP180;58740;50.672;18.690;2022-09-02T13:39:26;99309.20;;;19.20
71081;BMP180;58740;50.672;18.690;2022-09-02T13:41:54;99312.40;;;19.30
71081;BMP180;58740;50.672;18.690;2022-09-02T13:44:27;99313.20;;;19.30
71081;BMP180;58740;50.672;18.690;2022-09-02T13:47:14;99311.40;;;19.30
71081;BMP180;58740;50.672;18.690;2022-09-02T13:49:47;99311.00;;;19.34
71081;BMP180;58740;50.672;18.690;2022-09-02T13:52:21;99310.20;;;19.30
71081;BMP180;58740;50.672;18.690;2022-09-02T13:55:13;99306.40;;;19.28
71081;BMP180;58740;50.672;18.690;2022-09-02T13:57:58;99306.00;;;19.20
71081;BMP180;58740;50.672;18.690;2022-09-02T14:00:35;99308.20;;;19.10
71081;BMP180;58740;50.672;18.690;2022-09-02T14:03:09;99312.40;;;19.00
71081;BMP180;58740;50.672;18.690;2022-09-02T14:05:43;99310.20;;;19.00
71081;BMP180;58740;50.672;18.690;2022-09-02T14:08:21;99312.00;;;18.90
71081;BMP180;58740;50.672;18.690;2022-09-02T14:10:51;99313.20;;;18.90
71081;BMP180;58740;50.672;18.690;2022-09-02T14:13:22;99311.40;;;18.90
71081;BMP180;58740;50.672;18.690;2022-09-02T14:15:50;99311.80;;;18.90
71081;BMP180;58740;50.672;18.690;2022-09-02T14:18:21;99312.00;;;18.90
71081;BMP180;58740;50.672;18.690;2022-09-02T14:21:15;99315.20;;;18.84
71081;BMP180;58740;50.672;18.690;2022-09-02T14:23:51;99307.40;;;18.80
71081;BMP180;58740;50.672;18.690;2022-09-02T14:29:09;99307.00;;;18.80
71081;BMP180;58740;50.672;18.690;2022-09-02T14:31:38;99312.40;;;18.76
71081;BMP180;58740;50.672;18.690;2022-09-02T14:34:31;99308.40;;;18.70
71081;BMP180;58740;50.672;18.690;2022-09-02T14:36:59;99307.20;;;18.70
71081;BMP180;58740;50.672;18.690;2022-09-02T14:39:27;99306.20;;;18.60
71081;BMP180;58740;50.672;18.690;2022-09-02T14:41:55;99308.00;;;18.60
71081;BMP180;58740;50.672;18.690;2022-09-02T14:44:33;99309.80;;;18.60
71081;BMP180;58740;50.672;18.690;2022-09-02T14:47:05;99301.20;;;18.60
71081;BMP180;58740;50.672;18.690;2022-09-02T14:49:52;99296.00;;;18.60
71081;BMP180;58740;50.672;18.690;2022-09-02T14:52:25;99284.60;;;18.70
71081;BMP180;58740;50.672;18.690;2022-09-02T14:54:56;99287.80;;;18.70
71081;BMP180;58740;50.672;18.690;2022-09-02T14:57:30;99288.40;;;18.70
71081;BMP180;58740;50.672;18.690;2022-09-02T15:00:11;99286.60;;;18.70
71081;BMP180;58740;50.672;18.690;2022-09-02T15:02:44;99282.00;;;18.80
71081;BMP180;58740;50.672;18.690;2022-09-02T15:05:14;99281.80;;;18.80
71081;BMP180;58740;50.672;18.690;2022-09-02T15:07:42;99277.60;;;18.80
71081;BMP180;58740;50.672;18.690;2022-09-02T15:10:09;99281.60;;;18.80
71081;BMP180;58740;50.672;18.690;2022-09-02T15:12:46;99276.80;;;18.80
71081;BMP180;58740;50.672;18.690;2022-09-02T15:15:16;99278.80;;;18.80
71081;BMP180;58740;50.672;18.690;2022-09-02T15:17:44;99278.80;;;18.80
71081;BMP180;58740;50.672;18.690;2022-09-02T15:20:12;99277.20;;;18.80
71081;BMP180;58740;50.672;18.690;2022-09-02T15:22:40;99269.80;;;18.80
71081;BMP180;58740;50.672;18.690;2022-09-02T15:25:09;99270.20;;;18.80
71081;BMP180;58740;50.672;18.690;2022-09-02T15:27:38;99263.60;;;18.90
71081;BMP180;58740;50.672;18.690;2022-09-02T15:30:06;99267.80;;;18.90
71081;BMP180;58740;50.672;18.690;2022-09-02T15:32:36;99272.40;;;18.90
71081;BMP180;58740;50.672;18.690;2022-09-02T15:35:14;99268.00;;;18.90
71081;BMP180;58740;50.672;18.690;2022-09-02T15:37:42;99261.20;;;18.90
71081;BMP180;58740;50.672;18.690;2022-09-02T15:40:10;99267.20;;;18.90
71081;BMP180;58740;50.672;18.690;2022-09-02T15:42:38;99263.40;;;18.90
71081;BMP180;58740;50.672;18.690;2022-09-02T15:45:07;99263.20;;;18.90
71081;BMP180;58740;50.672;18.690;2022-09-02T15:47:36;99268.80;;;18.90
71081;BMP180;58740;50.672;18.690;2022-09-02T15:50:05;99263.40;;;18.90
71081;BMP180;58740;50.672;18.690;2022-09-02T15:52:34;99257.80;;;18.80
71081;BMP180;58740;50.672;18.690;2022-09-02T15:55:03;99257.40;;;18.80
71081;BMP180;58740;50.672;18.690;2022-09-02T15:57:31;99258.20;;;18.70
71081;BMP180;58740;50.672;18.690;2022-09-02T16:00:02;99256.80;;;18.70
71081;BMP180;58740;50.672;18.690;2022-09-02T16:02:36;99261.00;;;18.70
71081;BMP180;58740;50.672;18.690;2022-09-02T16:05:04;99256.60;;;18.70